sensor_id;sensor_type;location;lat;lon;timestamp;pressure;altitude;pressure_sealevel;temperature;humidity
35577;BME280;21680;52.400;16.920;2023-10-08T00:01:02;100612.58;;;10.07;100.00
35577;BME280;21680;52.400;16.920;2023-10-08T00:03:28;100623.98;;;10.07;100.00
35577;BME280;21680;52.400;16.920;2023-10-08T00:05:55;100634.64;;;10.08;100.00
35577;BME280;21680;52.400;16.920;2023-10-08T00:08:21;100639.04;;;10.10;100.00
35577;BME280;21680;52.400;16.920;2023-10-08T00:10:47;100644.34;;;10.12;100.00
35577;BME280;21680;52.400;16.920;2023-10-08T00:13:14;100645.19;;;10.13;100.00
35577;BME280;21680;52.400;16.920;2023-10-08T00:15:44;100645.09;;;10.15;100.00
35577;BME280;21680;52.400;16.920;2023-10-08T00:18:19;100640.77;;;10.16;100.00
35577;BME280;21680;52.400;16.920;2023-10-08T00:20:45;100647.75;;;10.16;100.00
35577;BME280;21680;52.400;16.920;2023-10-08T00:23:22;100648.81;;;10.16;100.00
35577;BME280;21680;52.400;16.920;2023-10-08T00:25:47;100643.82;;;10.16;100.00
35577;BME280;21680;52.400;16.920;2023-10-08T00:28:15;100647.73;;;10.16;100.00
35577;BME280;21680;52.400;16.920;2023-10-08T00:30:42;100650.36;;;10.17;100.00
35577;BME280;21680;52.400;16.920;2023-10-08T00:33:09;100649.65;;;10.17;100.00
35577;BME280;21680;52.400;16.920;2023-10-08T00:35:39;100646.98;;;10.17;100.00
35577;BME280;21680;52.400;16.920;2023-10-08T00:38:07;100650.17;;;10.18;100.00
35577;BME280;21680;52.400;16.920;2023-10-08T00:40:39;100647.49;;;10.18;100.00
35577;BME280;21680;52.400;16.920;2023-10-08T00:43:05;100643.73;;;10.18;100.00
35577;BME280;21680;52.400;16.920;2023-10-08T00:45:38;100642.61;;;10.19;100.00
35577;BME280;21680;52.400;16.920;2023-10-08T00:48:10;100663.11;;;10.21;100.00
35577;BME280;21680;52.400;16.920;2023-10-08T00:50:42;100665.95;;;10.21;100.00
35577;BME280;21680;52.400;16.920;2023-10-08T00:53:10;100659.48;;;10.22;100.00
35577;BME280;21680;52.400;16.920;2023-10-08T00:55:56;100650.13;;;10.24;100.00
35577;BME280;21680;52.400;16.920;2023-10-08T00:58:30;100647.98;;;10.24;100.00
35577;BME280;21680;52.400;16.920;2023-10-08T01:00:59;100636.38;;;10.24;100.00
35577;BME280;21680;52.400;16.920;2023-10-08T01:03:28;100628.81;;;10.25;100.00
35577;BME280;21680;52.400;16.920;2023-10-08T01:05:54;100626.29;;;10.26;100.00
35577;BME280;21680;52.400;16.920;2023-10-08T01:08:25;100630.02;;;10.26;100.00
35577;BME280;21680;52.400;16.920;2023-10-08T01:11:21;100658.08;;;10.26;100.00
35577;BME280;21680;52.400;16.920;2023-10-08T01:14:09;100653.50;;;10.24;100.00
35577;BME280;21680;52.400;16.920;2023-10-08T01:16:35;100651.55;;;10.23;100.00
35577;BME280;21680;52.400;16.920;2023-10-08T01:19:00;100660.85;;;10.23;100.00
35577;BME280;21680;52.400;16.920;2023-10-08T01:21:29;100672.35;;;10.22;100.00
35577;BME280;21680;52.400;16.920;2023-10-08T01:24:05;100662.15;;;10.22;100.00
35577;BME280;21680;52.400;16.920;2023-10-08T01:26:33;100664.66;;;10.22;100.00
35577;BME280;21680;52.400;16.920;2023-10-08T01:28:59;100675.82;;;10.20;100.00
35577;BME280;21680;52.400;16.920;2023-10-08T01:31:32;100682.06;;;10.20;100.00
35577;BME280;21680;52.400;16.920;2023-10-08T01:33:58;100685.99;;;10.19;100.00
35577;BME280;21680;52.400;16.920;2023-10-08T01:36:26;100676.41;;;10.18;100.00
35577;BME280;21680;52.400;16.920;2023-10-08T01:38:51;100687.40;;;10.16;100.00
35577;BME280;21680;52.400;16.920;2023-10-08T01:41:17;100698.91;;;10.14;100.00
35577;BME280;21680;52.400;16.920;2023-10-08T01:43:56;100712.29;;;10.14;100.00
35577;BME280;21680;52.400;16.920;2023-10-08T01:46:24;100730.70;;;10.13;100.00
35577;BME280;21680;52.400;16.920;2023-10-08T01:48:51;100741.34;;;10.10;100.00
35577;BME280;21680;52.400;16.920;2023-10-08T01:51:21;100749.44;;;10.09;100.00
35577;BME280;21680;52.400;16.920;2023-10-08T01:54:00;100753.27;;;10.06;100.00
35577;BME280;21680;52.400;16.920;2023-10-08T01:56:27;100761.06;;;10.04;100.00
35577;BME280;21680;52.400;16.920;2023-10-08T01:58:53;100760.96;;;10.02;100.00
35577;BME280;21680;52.400;16.920;2023-10-08T02:01:21;100759.81;;;9.99;100.00
35577;BME280;21680;52.400;16.920;2023-10-08T02:03:47;100759.38;;;9.97;100.00
35577;BME280;21680;52.400;16.920;2023-10-08T02:06:13;100761.21;;;9.96;100.00
35577;BME280;21680;52.400;16.920;2023-10-08T02:08:38;100758.41;;;9.94;100.00
35577;BME280;21680;52.400;16.920;2023-10-08T02:11:04;100774.36;;;9.92;100.00
35577;BME280;21680;52.400;16.920;2023-10-08T02:13:29;100782.31;;;9.90;100.00
35577;BME280;21680;52.400;16.920;2023-10-08T02:15:55;100778.96;;;9.89;100.00
35577;BME280;21680;52.400;16.920;2023-10-08T02:18:21;100768.67;;;9.87;100.00
35577;BME280;21680;52.400;16.920;2023-10-08T02:20:48;100764.66;;;9.85;100.00
35577;BME280;21680;52.400;16.920;2023-10-08T02:23:14;100775.31;;;9.82;100.00
35577;BME280;21680;52.400;16.920;2023-10-08T02:25:39;100787.11;;;9.82;100.00
35577;BME280;21680;52.400;16.920;2023-10-08T02:28:08;100786.61;;;9.81;100.00
35577;BME280;21680;52.400;16.920;2023-10-08T02:30:34;100784.13;;;9.80;100.00
35577;BME280;21680;52.400;16.920;2023-10-08T02:32:59;100789.03;;;9.78;100.00
35577;BME280;21680;52.400;16.920;2023-10-08T02:35:25;100820.46;;;9.77;100.00
35577;BME280;21680;52.400;16.920;2023-10-08T02:37:52;100828.31;;;9.77;100.00
35577;BME280;21680;52.400;16.920;2023-10-08T02:40:20;100838.11;;;9.78;100.00
35577;BME280;21680;52.400;16.920;2023-10-08T02:42:52;100817.98;;;9.77;100.00
35577;BME280;21680;52.400;16.920;2023-10-08T02:45:25;100796.27;;;9.75;100.00
35577;BME280;21680;52.400;16.920;2023-10-08T02:47:50;100789.77;;;9.72;100.00
35577;BME280;21680;52.400;16.920;2023-10-08T02:50:18;100800.50;;;9.72;100.00
35577;BME280;21680;52.400;16.920;2023-10-08T02:52:43;100833.03;;;9.70;100.00
35577;BME280;21680;52.400;16.920;2023-10-08T02:55:12;100838.05;;;9.69;100.00
35577;BME280;21680;52.400;16.920;2023-10-08T02:57:49;100842.23;;;9.68;100.00
35577;BME280;21680;52.400;16.920;2023-10-08T03:00:16;100859.23;;;9.66;100.00
35577;BME280;21680;52.400;16.920;2023-10-08T03:02:45;100860.89;;;9.65;100.00
35577;BME280;21680;52.400;16.920;2023-10-08T03:05:12;100845.06;;;9.63;100.00
35577;BME280;21680;52.400;16.920;2023-10-08T03:07:41;100861.16;;;9.62;100.00
35577;BME280;21680;52.400;16.920;2023-10-08T03:10:07;100876.39;;;9.60;100.00
35577;BME280;21680;52.400;16.920;2023-10-08T03:12:42;100879.29;;;9.59;100.00
35577;BME280;21680;52.400;16.920;2023-10-08T03:15:08;100894.08;;;9.60;100.00
35577;BME280;21680;52.400;16.920;2023-10-08T03:17:55;100898.55;;;9.59;100.00
35577;BME280;21680;52.400;16.920;2023-10-08T03:20:22;100894.33;;;9.58;100.00
35577;BME280;21680;52.400;16.920;2023-10-08T03:23:07;100888.53;;;9.55;100.00
35577;BME280;21680;52.400;16.920;2023-10-08T03:25:55;100883.50;;;9.51;100.00
35577;BME280;21680;52.400;16.920;2023-10-08T03:28:37;100873.64;;;9.48;100.00
35577;BME280;21680;52.400;16.920;2023-10-08T03:31:04;100882.14;;;9.44;100.00
35577;BME280;21680;52.400;16.920;2023-10-08T03:33:34;100891.67;;;9.41;100.00
35577;BME280;21680;52.400;16.920;2023-10-08T03:36:06;100900.50;;;9.39;100.00
35577;BME280;21680;52.400;16.920;2023-10-08T03:38:48;100904.92;;;9.35;100.00
35577;BME280;21680;52.400;16.920;2023-10-08T03:41:17;100907.78;;;9.30;100.00
35577;BME280;21680;52.400;16.920;2023-10-08T03:43:44;100920.24;;;9.25;100.00
35577;BME280;21680;52.400;16.920;2023-10-08T03:46:18;100921.63;;;9.21;100.00
35577;BME280;21680;52.400;16.920;2023-10-08T03:48:46;100919.09;;;9.17;100.00
35577;BME280;21680;52.400;16.920;2023-10-08T03:51:12;100918.16;;;9.13;100.00
35577;BME280;21680;52.400;16.920;2023-10-08T03:53:39;100925.44;;;9.08;100.00
35577;BME280;21680;52.400;16.920;2023-10-08T03:56:27;100933.61;;;9.04;100.00
35577;BME280;21680;52.400;16.920;2023-10-08T03:58:59;100930.58;;;8.98;100.00
35577;BME280;21680;52.400;16.920;2023-10-08T04:01:26;100933.44;;;8.92;100.00
35577;BME280;21680;52.400;16.920;2023-10-08T04:03:56;100938.41;;;8.88;100.00
35577;BME280;21680;52.400;16.920;2023-10-08T04:06:27;100942.88;;;8.82;100.00
35577;BME280;21680;52.400;16.920;2023-10-08T04:08:57;100951.21;;;8.77;100.00
35577;BME280;21680;52.400;16.920;2023-10-08T04:11:33;100961.66;;;8.73;100.00
35577;BME280;21680;52.400;16.920;2023-10-08T04:14:08;100969.27;;;8.69;100.00
35577;BME280;21680;52.400;16.920;2023-10-08T04:16:34;100978.30;;;8.66;100.00
35577;BME280;21680;52.400;16.920;2023-10-08T04:19:05;100989.63;;;8.61;100.00
35577;BME280;21680;52.400;16.920;2023-10-08T04:21:30;100997.40;;;8.58;100.00
35577;BME280;21680;52.400;16.920;2023-10-08T04:23:59;101000.19;;;8.54;100.00
35577;BME280;21680;52.400;16.920;2023-10-08T04:26:29;101006.11;;;8.46;100.00
35577;BME280;21680;52.400;16.920;2023-10-08T04:28:57;101017.30;;;8.41;100.00
35577;BME280;21680;52.400;16.920;2023-10-08T04:31:23;101027.60;;;8.36;100.00
35577;BME280;21680;52.400;16.920;2023-10-08T04:34:01;101033.82;;;8.29;100.00
35577;BME280;21680;52.400;16.920;2023-10-08T04:36:32;101032.02;;;8.24;100.00
35577;BME280;21680;52.400;16.920;2023-10-08T04:38:57;101041.44;;;8.17;100.00
35577;BME280;21680;52.400;16.920;2023-10-08T04:41:29;101050.45;;;8.13;100.00
35577;BME280;21680;52.400;16.920;2023-10-08T04:43:55;101063.20;;;8.09;100.00
35577;BME280;21680;52.400;16.920;2023-10-08T04:46:21;101065.45;;;8.05;100.00
35577;BME280;21680;52.400;16.920;2023-10-08T04:49:05;101068.52;;;8.02;100.00
35577;BME280;21680;52.400;16.920;2023-10-08T04:51:33;101074.98;;;8.00;100.00
35577;BME280;21680;52.400;16.920;2023-10-08T04:54:10;101080.76;;;7.98;100.00
35577;BME280;21680;52.400;16.920;2023-10-08T04:56:42;101089.39;;;7.94;100.00
35577;BME280;21680;52.400;16.920;2023-10-08T04:59:07;101090.41;;;7.89;100.00
35577;BME280;21680;52.400;16.920;2023-10-08T05:01:36;101089.27;;;7.85;100.00
35577;BME280;21680;52.400;16.920;2023-10-08T05:04:27;101099.02;;;7.80;100.00
35577;BME280;21680;52.400;16.920;2023-10-08T05:06:58;101101.49;;;7.73;100.00
35577;BME280;21680;52.400;16.920;2023-10-08T05:09:39;101107.13;;;7.69;100.00
35577;BME280;21680;52.400;16.920;2023-10-08T05:12:12;101111.84;;;7.65;100.00
35577;BME280;21680;52.400;16.920;2023-10-08T05:15:00;101114.61;;;7.61;100.00
35577;BME280;21680;52.400;16.920;2023-10-08T05:17:38;101124.50;;;7.57;100.00
35577;BME280;21680;52.400;16.920;2023-10-08T05:20:21;101129.79;;;7.51;100.00
35577;BME280;21680;52.400;16.920;2023-10-08T05:23:12;101140.95;;;7.45;100.00
35577;BME280;21680;52.400;16.920;2023-10-08T05:25:55;101149.36;;;7.42;100.00
35577;BME280;21680;52.400;16.920;2023-10-08T05:28:37;101155.30;;;7.39;100.00
35577;BME280;21680;52.400;16.920;2023-10-08T05:31:23;101157.68;;;7.36;100.00
35577;BME280;21680;52.400;16.920;2023-10-08T05:34:08;101164.88;;;7.32;100.00
35577;BME280;21680;52.400;16.920;2023-10-08T05:36:58;101180.76;;;7.30;100.00
35577;BME280;21680;52.400;16.920;2023-10-08T05:39:24;101180.45;;;7.27;100.00
35577;BME280;21680;52.400;16.920;2023-10-08T05:41:50;101180.83;;;7.26;100.00
35577;BME280;21680;52.400;16.920;2023-10-08T05:44:30;101187.46;;;7.24;100.00
35577;BME280;21680;52.400;16.920;2023-10-08T05:47:05;101193.33;;;7.23;100.00
35577;BME280;21680;52.400;16.920;2023-10-08T05:49:50;101195.14;;;7.22;100.00
35577;BME280;21680;52.400;16.920;2023-10-08T05:52:34;101198.54;;;7.21;100.00
35577;BME280;21680;52.400;16.920;2023-10-08T05:55:16;101201.56;;;7.21;100.00
35577;BME280;21680;52.400;16.920;2023-10-08T05:57:51;101208.73;;;7.18;100.00
35577;BME280;21680;52.400;16.920;2023-10-08T06:00:27;101217.09;;;7.17;100.00
35577;BME280;21680;52.400;16.920;2023-10-08T06:03:12;101222.98;;;7.16;100.00
35577;BME280;21680;52.400;16.920;2023-10-08T06:05:58;101229.92;;;7.16;100.00
35577;BME280;21680;52.400;16.920;2023-10-08T06:08:48;101239.69;;;7.16;100.00
35577;BME280;21680;52.400;16.920;2023-10-08T06:11:36;101243.92;;;7.18;100.00
35577;BME280;21680;52.400;16.920;2023-10-08T06:14:31;101245.89;;;7.17;100.00
35577;BME280;21680;52.400;16.920;2023-10-08T06:17:15;101241.61;;;7.18;100.00
35577;BME280;21680;52.400;16.920;2023-10-08T06:20:02;101246.19;;;7.20;100.00
35577;BME280;21680;52.400;16.920;2023-10-08T06:22:35;101255.75;;;7.22;100.00
35577;BME280;21680;52.400;16.920;2023-10-08T06:25:01;101262.64;;;7.24;100.00
35577;BME280;21680;52.400;16.920;2023-10-08T06:27:43;101265.95;;;7.27;100.00
35577;BME280;21680;52.400;16.920;2023-10-08T06:30:11;101274.96;;;7.30;100.00
35577;BME280;21680;52.400;16.920;2023-10-08T06:32:43;101282.05;;;7.31;100.00
35577;BME280;21680;52.400;16.920;2023-10-08T06:35:10;101285.39;;;7.33;100.00
35577;BME280;21680;52.400;16.920;2023-10-08T06:37:45;101294.05;;;7.36;100.00
35577;BME280;21680;52.400;16.920;2023-10-08T06:40:14;101300.39;;;7.39;100.00
35577;BME280;21680;52.400;16.920;2023-10-08T06:42:58;101310.11;;;7.41;100.00
35577;BME280;21680;52.400;16.920;2023-10-08T06:45:28;101305.61;;;7.45;100.00
35577;BME280;21680;52.400;16.920;2023-10-08T06:47:57;101314.78;;;7.48;100.00
35577;BME280;21680;52.400;16.920;2023-10-08T06:50:23;101320.05;;;7.52;100.00
35577;BME280;21680;52.400;16.920;2023-10-08T06:52:48;101328.16;;;7.56;100.00
35577;BME280;21680;52.400;16.920;2023-10-08T06:55:14;101328.27;;;7.59;100.00
35577;BME280;21680;52.400;16.920;2023-10-08T06:57:42;101333.87;;;7.63;100.00
35577;BME280;21680;52.400;16.920;2023-10-08T07:00:08;101339.48;;;7.67;100.00
35577;BME280;21680;52.400;16.920;2023-10-08T07:02:56;101343.27;;;7.73;100.00
35577;BME280;21680;52.400;16.920;2023-10-08T07:05:22;101344.73;;;7.79;100.00
35577;BME280;21680;52.400;16.920;2023-10-08T07:07:47;101346.74;;;7.84;100.00
35577;BME280;21680;52.400;16.920;2023-10-08T07:10:12;101346.82;;;7.89;100.00
35577;BME280;21680;52.400;16.920;2023-10-08T07:12:38;101354.36;;;7.94;100.00
35577;BME280;21680;52.400;16.920;2023-10-08T07:15:05;101362.77;;;8.00;100.00
35577;BME280;21680;52.400;16.920;2023-10-08T07:17:36;101365.50;;;8.05;100.00
35577;BME280;21680;52.400;16.920;2023-10-08T07:20:08;101366.87;;;8.08;100.00
35577;BME280;21680;52.400;16.920;2023-10-08T07:22:46;101368.21;;;8.12;100.00
35577;BME280;21680;52.400;16.920;2023-10-08T07:25:15;101367.95;;;8.16;100.00
35577;BME280;21680;52.400;16.920;2023-10-08T07:27:44;101369.10;;;8.20;100.00
35577;BME280;21680;52.400;16.920;2023-10-08T07:30:10;101374.34;;;8.25;100.00
35577;BME280;21680;52.400;16.920;2023-10-08T07:32:36;101371.53;;;8.31;100.00
35577;BME280;21680;52.400;16.920;2023-10-08T07:35:04;101368.78;;;8.36;100.00
35577;BME280;21680;52.400;16.920;2023-10-08T07:37:50;101375.08;;;8.41;100.00
35577;BME280;21680;52.400;16.920;2023-10-08T07:40:18;101379.08;;;8.45;100.00
35577;BME280;21680;52.400;16.920;2023-10-08T07:42:46;101377.35;;;8.51;100.00
35577;BME280;21680;52.400;16.920;2023-10-08T07:45:17;101381.72;;;8.54;100.00
35577;BME280;21680;52.400;16.920;2023-10-08T07:47:43;101386.27;;;8.58;100.00
35577;BME280;21680;52.400;16.920;2023-10-08T07:50:10;101389.16;;;8.63;100.00
35577;BME280;21680;52.400;16.920;2023-10-08T07:52:38;101389.60;;;8.67;100.00
35577;BME280;21680;52.400;16.920;2023-10-08T07:55:04;101388.43;;;8.71;100.00
35577;BME280;21680;52.400;16.920;2023-10-08T07:57:32;101392.42;;;8.76;100.00
35577;BME280;21680;52.400;16.920;2023-10-08T07:59:58;101396.41;;;8.81;100.00
35577;BME280;21680;52.400;16.920;2023-10-08T08:02:43;101399.04;;;8.83;100.00
35577;BME280;21680;52.400;16.920;2023-10-08T08:05:09;101406.36;;;8.89;100.00
35577;BME280;21680;52.400;16.920;2023-10-08T08:07:34;101416.99;;;8.92;100.00
35577;BME280;21680;52.400;16.920;2023-10-08T08:09:59;101421.36;;;8.89;100.00
35577;BME280;21680;52.400;16.920;2023-10-08T08:12:25;101412.39;;;8.91;100.00
35577;BME280;21680;52.400;16.920;2023-10-08T08:14:53;101420.27;;;8.96;100.00
35577;BME280;21680;52.400;16.920;2023-10-08T08:17:18;101432.05;;;9.03;100.00
35577;BME280;21680;52.400;16.920;2023-10-08T08:19:46;101435.81;;;9.02;98.74
35577;BME280;21680;52.400;16.920;2023-10-08T08:22:16;101436.39;;;9.07;99.28
35577;BME280;21680;52.400;16.920;2023-10-08T08:24:53;101437.27;;;9.09;96.40
35577;BME280;21680;52.400;16.920;2023-10-08T08:27:28;101439.15;;;9.12;96.21
35577;BME280;21680;52.400;16.920;2023-10-08T08:29:59;101446.81;;;9.19;95.62
35577;BME280;21680;52.400;16.920;2023-10-08T08:32:39;101449.66;;;9.19;88.90
35577;BME280;21680;52.400;16.920;2023-10-08T08:35:08;101455.63;;;9.23;88.64
35577;BME280;21680;52.400;16.920;2023-10-08T08:37:37;101460.65;;;9.29;87.77
35577;BME280;21680;52.400;16.920;2023-10-08T08:40:07;101463.26;;;9.32;87.73
35577;BME280;21680;52.400;16.920;2023-10-08T08:42:48;101463.85;;;9.36;87.27
35577;BME280;21680;52.400;16.920;2023-10-08T08:45:18;101468.02;;;9.41;87.45
35577;BME280;21680;52.400;16.920;2023-10-08T08:47:45;101472.70;;;9.47;87.64
35577;BME280;21680;52.400;16.920;2023-10-08T08:50:11;101475.45;;;9.50;86.67
35577;BME280;21680;52.400;16.920;2023-10-08T08:52:40;101482.19;;;9.52;85.38
35577;BME280;21680;52.400;16.920;2023-10-08T08:55:06;101486.02;;;9.56;85.93
35577;BME280;21680;52.400;16.920;2023-10-08T08:57:39;101489.78;;;9.62;84.60
35577;BME280;21680;52.400;16.920;2023-10-08T09:00:05;101492.11;;;9.61;83.09
35577;BME280;21680;52.400;16.920;2023-10-08T09:02:38;101492.80;;;9.62;81.06
35577;BME280;21680;52.400;16.920;2023-10-08T09:05:04;101492.41;;;9.70;82.00
35577;BME280;21680;52.400;16.920;2023-10-08T09:08:10;101487.92;;;9.71;80.16
35577;BME280;21680;52.400;16.920;2023-10-08T09:10:37;101494.28;;;9.74;79.10
35577;BME280;21680;52.400;16.920;2023-10-08T09:13:07;101487.45;;;9.75;76.78
35577;BME280;21680;52.400;16.920;2023-10-08T09:15:34;101488.14;;;9.77;76.80
35577;BME280;21680;52.400;16.920;2023-10-08T09:18:02;101490.81;;;9.84;78.35
35577;BME280;21680;52.400;16.920;2023-10-08T09:20:32;101489.90;;;9.91;79.52
35577;BME280;21680;52.400;16.920;2023-10-08T09:23:14;101490.37;;;9.99;79.57
35577;BME280;21680;52.400;16.920;2023-10-08T09:25:43;101497.20;;;10.04;75.50
35577;BME280;21680;52.400;16.920;2023-10-08T09:28:10;101500.44;;;10.11;75.09
35577;BME280;21680;52.400;16.920;2023-10-08T09:30:38;101500.34;;;10.14;75.59
35577;BME280;21680;52.400;16.920;2023-10-08T09:33:09;101502.46;;;10.21;76.30
35577;BME280;21680;52.400;16.920;2023-10-08T09:35:35;101500.79;;;10.24;75.26
35577;BME280;21680;52.400;16.920;2023-10-08T09:38:02;101507.85;;;10.27;75.44
35577;BME280;21680;52.400;16.920;2023-10-08T09:40:28;101500.21;;;10.26;74.87
35577;BME280;21680;52.400;16.920;2023-10-08T09:42:55;101505.84;;;10.29;75.54
35577;BME280;21680;52.400;16.920;2023-10-08T09:45:21;101506.80;;;10.39;75.39
35577;BME280;21680;52.400;16.920;2023-10-08T09:47:50;101506.38;;;10.41;75.40
35577;BME280;21680;52.400;16.920;2023-10-08T09:50:26;101508.13;;;10.41;74.37
35577;BME280;21680;52.400;16.920;2023-10-08T09:53:00;101510.05;;;10.43;72.73
35577;BME280;21680;52.400;16.920;2023-10-08T09:55:29;101506.98;;;10.44;72.74
35577;BME280;21680;52.400;16.920;2023-10-08T09:57:54;101512.20;;;10.49;72.85
35577;BME280;21680;52.400;16.920;2023-10-08T10:00:21;101511.34;;;10.54;73.57
35577;BME280;21680;52.400;16.920;2023-10-08T10:02:59;101512.79;;;10.59;73.04
35577;BME280;21680;52.400;16.920;2023-10-08T10:05:30;101509.36;;;10.60;71.32
35577;BME280;21680;52.400;16.920;2023-10-08T10:07:56;101516.59;;;10.63;70.01
35577;BME280;21680;52.400;16.920;2023-10-08T10:10:26;101510.83;;;10.65;68.11
35577;BME280;21680;52.400;16.920;2023-10-08T10:12:52;101517.55;;;10.67;65.73
35577;BME280;21680;52.400;16.920;2023-10-08T10:15:20;101518.33;;;10.77;67.43
35577;BME280;21680;52.400;16.920;2023-10-08T10:17:47;101518.08;;;10.85;65.31
35577;BME280;21680;52.400;16.920;2023-10-08T10:20:12;101519.77;;;10.88;66.07
35577;BME280;21680;52.400;16.920;2023-10-08T10:22:39;101524.65;;;10.92;64.46
35577;BME280;21680;52.400;16.920;2023-10-08T10:25:05;101524.64;;;10.98;64.43
35577;BME280;21680;52.400;16.920;2023-10-08T10:30:31;101530.23;;;11.09;66.08
35577;BME280;21680;52.400;16.920;2023-10-08T10:33:00;101523.44;;;11.14;66.32
35577;BME280;21680;52.400;16.920;2023-10-08T10:35:26;101517.65;;;11.22;63.97
35577;BME280;21680;52.400;16.920;2023-10-08T10:37:53;101513.48;;;11.23;62.46
35577;BME280;21680;52.400;16.920;2023-10-08T10:40:21;101519.77;;;11.28;61.10
35577;BME280;21680;52.400;16.920;2023-10-08T10:42:57;101523.55;;;11.38;61.02
35577;BME280;21680;52.400;16.920;2023-10-08T10:45:23;101521.98;;;11.43;58.34
35577;BME280;21680;52.400;16.920;2023-10-08T10:48:02;101521.84;;;11.47;59.85
35577;BME280;21680;52.400;16.920;2023-10-08T10:50:48;101524.33;;;11.63;61.53
35577;BME280;21680;52.400;16.920;2023-10-08T10:53:36;101525.36;;;11.81;62.08
35577;BME280;21680;52.400;16.920;2023-10-08T10:56:11;101521.42;;;11.91;61.99
35577;BME280;21680;52.400;16.920;2023-10-08T10:58:45;101522.04;;;12.05;61.63
35577;BME280;21680;52.400;16.920;2023-10-08T11:01:10;101515.60;;;12.19;61.35
35577;BME280;21680;52.400;16.920;2023-10-08T11:03:51;101524.50;;;12.21;60.17
35577;BME280;21680;52.400;16.920;2023-10-08T11:06:18;101527.96;;;12.19;57.77
35577;BME280;21680;52.400;16.920;2023-10-08T11:08:50;101521.13;;;12.20;57.64
35577;BME280;21680;52.400;16.920;2023-10-08T11:11:25;101522.75;;;12.19;57.28
35577;BME280;21680;52.400;16.920;2023-10-08T11:13:56;101528.33;;;12.24;58.18
35577;BME280;21680;52.400;16.920;2023-10-08T11:16:25;101520.33;;;12.32;58.25
35577;BME280;21680;52.400;16.920;2023-10-08T11:18:51;101519.09;;;12.46;58.73
35577;BME280;21680;52.400;16.920;2023-10-08T11:21:17;101515.77;;;12.57;58.66
35577;BME280;21680;52.400;16.920;2023-10-08T11:23:48;101523.27;;;12.82;60.06
35577;BME280;21680;52.400;16.920;2023-10-08T11:26:25;101524.35;;;12.91;59.56
35577;BME280;21680;52.400;16.920;2023-10-08T11:28:58;101523.23;;;12.78;58.58
35577;BME280;21680;52.400;16.920;2023-10-08T11:31:27;101529.65;;;12.75;59.57
35577;BME280;21680;52.400;16.920;2023-10-08T11:33:58;101523.77;;;12.79;59.42
35577;BME280;21680;52.400;16.920;2023-10-08T11:36:24;101515.98;;;12.80;59.83
35577;BME280;21680;52.400;16.920;2023-10-08T11:38:56;101510.95;;;12.76;59.05
35577;BME280;21680;52.400;16.920;2023-10-08T11:41:31;101511.92;;;12.59;59.14
35577;BME280;21680;52.400;16.920;2023-10-08T11:44:00;101516.97;;;12.54;59.96
35577;BME280;21680;52.400;16.920;2023-10-08T11:46:30;101516.23;;;12.55;58.96
35577;BME280;21680;52.400;16.920;2023-10-08T11:49:05;101515.64;;;12.51;59.85
35577;BME280;21680;52.400;16.920;2023-10-08T11:51:35;101513.38;;;12.69;59.72
35577;BME280;21680;52.400;16.920;2023-10-08T11:54:01;101515.16;;;12.83;59.68
35577;BME280;21680;52.400;16.920;2023-10-08T11:56:30;101519.93;;;12.89;59.36
35577;BME280;21680;52.400;16.920;2023-10-08T11:58:57;101519.79;;;12.93;57.35
35577;BME280;21680;52.400;16.920;2023-10-08T12:01:26;101521.88;;;13.03;56.57
35577;BME280;21680;52.400;16.920;2023-10-08T12:03:53;101527.02;;;13.00;55.93
35577;BME280;21680;52.400;16.920;2023-10-08T12:06:22;101521.61;;;12.92;54.54
35577;BME280;21680;52.400;16.920;2023-10-08T12:08:49;101522.80;;;12.80;53.44
35577;BME280;21680;52.400;16.920;2023-10-08T12:11:19;101527.73;;;12.64;53.54
35577;BME280;21680;52.400;16.920;2023-10-08T12:13:45;101532.65;;;12.66;54.71
35577;BME280;21680;52.400;16.920;2023-10-08T12:16:14;101537.86;;;12.66;54.28
35577;BME280;21680;52.400;16.920;2023-10-08T12:18:49;101536.10;;;12.65;55.20
35577;BME280;21680;52.400;16.920;2023-10-08T12:21:21;101540.60;;;12.70;55.51
35577;BME280;21680;52.400;16.920;2023-10-08T12:23:47;101538.73;;;12.90;55.92
35577;BME280;21680;52.400;16.920;2023-10-08T12:26:13;101542.52;;;13.30;56.44
35577;BME280;21680;52.400;16.920;2023-10-08T12:28:41;101547.48;;;13.67;56.06
35577;BME280;21680;52.400;16.920;2023-10-08T12:31:11;101542.69;;;13.66;53.22
35577;BME280;21680;52.400;16.920;2023-10-08T12:33:36;101545.73;;;13.40;54.00
35577;BME280;21680;52.400;16.920;2023-10-08T12:36:03;101536.58;;;13.74;54.47
35577;BME280;21680;52.400;16.920;2023-10-08T12:38:36;101539.02;;;14.01;52.93
35577;BME280;21680;52.400;16.920;2023-10-08T12:41:01;101536.64;;;14.38;53.44
35577;BME280;21680;52.400;16.920;2023-10-08T12:43:37;101536.57;;;14.80;52.21
35577;BME280;21680;52.400;16.920;2023-10-08T12:46:04;101537.01;;;14.71;51.80
35577;BME280;21680;52.400;16.920;2023-10-08T12:48:32;101536.52;;;14.33;50.86
35577;BME280;21680;52.400;16.920;2023-10-08T12:50:57;101532.19;;;14.13;51.71
35577;BME280;21680;52.400;16.920;2023-10-08T12:53:25;101535.08;;;14.33;52.61
35577;BME280;21680;52.400;16.920;2023-10-08T12:56:02;101535.42;;;14.34;51.67
35577;BME280;21680;52.400;16.920;2023-10-08T12:58:34;101534.85;;;13.77;49.34
35577;BME280;21680;52.400;16.920;2023-10-08T13:01:12;101537.19;;;13.24;49.85
35577;BME280;21680;52.400;16.920;2023-10-08T13:03:40;101531.55;;;13.08;51.28